CheckWX is a tool to help pilots better visualize weather data.  It is not intended as a substitute for an official pre-flight weather briefing.

23:50:21 UTC

LGTG TAF
Tanagra Airport
Tanagra, Greece
TAF LGTG 162300Z 1700/1709 VRB03KT 8000 FEW010 SCT020 TEMPO 1701/1707 4000 BR SCT008 SCT015 PROB40 TEMPO 1703/1706 0800 FG SCT006 SCT012

Nov-17@
00:00 UTC

Nov-17 @ 00:00 UTC

Nov-17@
09:00 UTC

Nov-17 @ 09:00 UTC

TAF LGTG 162300Z 1700/1709 VRB03KT 8000 FEW010 SCT020
Wind
  • Variable at 3 KTS
Cloud Levels
  • Few at 1,000' AGL
  • Scattered at 2,000' AGL

Nov-17@
01:00 UTC

Nov-17 @ 01:00 UTC

Nov-17@
07:00 UTC

Nov-17 @ 07:00 UTC

TEMPO 1701/1707 4000 BR SCT008 SCT015

Temporary

Temporary Changes expected for less than half the time period

Conditions
Mist
Cloud Levels
  • Scattered at 800' AGL
  • Scattered at 1,500' AGL

Nov-17@
03:00 UTC

Nov-17 @ 03:00 UTC

Nov-17@
06:00 UTC

Nov-17 @ 06:00 UTC

PROB40 TEMPO 1703/1706 0800 FG SCT006 SCT012

Temporary - 40% Likelihood

Temporary - 40% Likelihood during this time.

Conditions
Fog
Cloud Levels
  • Scattered at 600' AGL
  • Scattered at 1,200' AGL